Time;durP1;ratioP1;P1;durP2;ratioP2;P2;SDS_P1;SDS_P2;PMS_P1;PMS_P2;Temp;Humidity;BMP_temperature;BMP_pressure;BME280_temperature;BME280_humidity;BME280_pressure;Samples;Min_cycle;Max_cycle;Signal;HPM_P1;HPM_P2
2023/03/11 00:01:39;;;;;;;2.28;1.30;;;;;;;;;;5013947;28;20388;-58
2023/03/11 00:04:06;;;;;;;2.40;1.23;;;;;;;;;;5014019;28;20050;-57
2023/03/11 00:06:34;;;;;;;2.92;1.42;;;;;;;;;;5004882;28;20050;-59
2023/03/11 00:09:03;;;;;;;2.33;1.27;;;;;;;;;;4994367;28;20054;-59
2023/03/11 00:11:30;;;;;;;2.55;1.50;;;;;;;;;;4994269;28;20141;-58
2023/03/11 00:13:57;;;;;;;2.63;1.40;;;;;;;;;;4994252;28;20046;-60
2023/03/11 00:16:24;;;;;;;2.75;1.45;;;;;;;;;;4994062;28;20058;-58
2023/03/11 00:18:51;;;;;;;2.17;1.20;;;;;;;;;;5008857;28;20100;-57
2023/03/11 00:21:19;;;;;;;1.88;1.25;;;;;;;;;;5013835;28;20495;-58
2023/03/11 00:23:46;;;;;;;2.15;1.35;;;;;;;;;;5013464;28;20062;-58
2023/03/11 00:26:14;;;;;;;3.33;1.50;;;;;;;;;;5013522;28;20471;-58
2023/03/11 00:28:41;;;;;;;2.63;1.40;;;;;;;;;;5013511;28;20054;-59
2023/03/11 00:31:07;;;;;;;2.38;1.30;;;;;;;;;;5013401;28;20561;-58
2023/03/11 00:33:34;;;;;;;2.25;1.25;;;;;;;;;;5013626;28;20096;-58
2023/03/11 00:36:01;;;;;;;3.30;1.42;;;;;;;;;;5013295;28;20061;-58
2023/03/11 00:38:28;;;;;;;3.30;1.40;;;;;;;;;;5012358;28;20050;-57
2023/03/11 00:40:55;;;;;;;2.30;1.30;;;;;;;;;;5013256;28;20049;-55
2023/03/11 00:43:23;;;;;;;3.05;1.50;;;;;;;;;;5013285;28;20108;-59
2023/03/11 00:45:49;;;;;;;3.08;1.40;;;;;;;;;;5013035;28;20057;-59
2023/03/11 00:48:16;;;;;;;2.30;1.30;;;;;;;;;;5013405;28;20050;-58
2023/03/11 00:50:43;;;;;;;2.15;1.20;;;;;;;;;;5013094;28;20053;-58
2023/03/11 00:53:10;;;;;;;3.35;1.48;;;;;;;;;;5013260;28;20053;-58
2023/03/11 00:55:37;;;;;;;2.72;1.50;;;;;;;;;;5013142;28;20057;-59
2023/03/11 00:58:06;;;;;;;2.28;1.27;;;;;;;;;;5013441;28;20054;-59
2023/03/11 01:00:34;;;;;;;2.28;1.20;;;;;;;;;;5012753;28;20096;-57
2023/03/11 01:03:01;;;;;;;3.70;1.50;;;;;;;;;;5013087;28;20053;-58
2023/03/11 01:05:30;;;;;;;2.42;1.25;;;;;;;;;;5012947;28;20637;-59
2023/03/11 01:07:57;;;;;;;2.85;1.33;;;;;;;;;;5012992;28;20181;-57
2023/03/11 01:10:24;;;;;;;2.78;1.58;;;;;;;;;;5012833;28;20065;-58
2023/03/11 01:12:51;;;;;;;2.53;1.42;;;;;;;;;;5012722;28;20054;-58
2023/03/11 01:15:20;;;;;;;2.85;1.50;;;;;;;;;;5012566;28;20104;-59
2023/03/11 01:17:49;;;;;;;2.97;1.20;;;;;;;;;;5012640;28;20108;-59
2023/03/11 01:20:16;;;;;;;2.63;1.38;;;;;;;;;;5012201;28;20408;-61
2023/03/11 01:22:43;;;;;;;2.20;1.30;;;;;;;;;;5012490;28;20050;-62
2023/03/11 01:25:13;;;;;;;3.03;1.33;;;;;;;;;;5012466;28;20058;-62
2023/03/11 01:27:40;;;;;;;2.47;1.30;;;;;;;;;;5012383;28;20413;-62
2023/03/11 01:30:08;;;;;;;4.10;1.50;;;;;;;;;;5012114;28;20054;-62
2023/03/11 01:32:35;;;;;;;2.80;1.40;;;;;;;;;;5005023;28;20054;-62
2023/03/11 01:35:13;;;;;;;2.40;1.20;;;;;;;;;;5012628;28;20546;-61
2023/03/11 01:37:42;;;;;;;3.13;1.50;;;;;;;;;;5012579;28;20088;-62
2023/03/11 01:40:16;;;;;;;2.38;1.35;;;;;;;;;;5012192;28;20108;-62
2023/03/11 01:42:45;;;;;;;2.75;1.50;;;;;;;;;;5012065;28;20064;-62
2023/03/11 01:45:41;;;;;;;2.33;1.27;;;;;;;;;;5012098;28;20459;-62
2023/03/11 01:48:08;;;;;;;4.13;1.40;;;;;;;;;;5012281;28;20137;-62
2023/03/11 01:50:40;;;;;;;3.00;1.30;;;;;;;;;;5012665;28;20053;-62
2023/03/11 01:53:07;;;;;;;2.53;1.30;;;;;;;;;;5012033;28;20049;-61
2023/03/11 01:55:34;;;;;;;4.53;1.40;;;;;;;;;;5012082;28;20109;-62
2023/03/11 01:58:04;;;;;;;2.08;1.10;;;;;;;;;;5012146;28;20050;-61
2023/03/11 02:00:31;;;;;;;3.80;1.50;;;;;;;;;;5012221;28;20050;-62
2023/03/11 02:03:01;;;;;;;2.75;1.52;;;;;;;;;;5011588;28;20050;-62
2023/03/11 02:05:28;;;;;;;3.13;1.30;;;;;;;;;;5011692;28;20061;-61
2023/03/11 02:07:57;;;;;;;2.58;1.33;;;;;;;;;;4992136;28;20042;-62
2023/03/11 02:10:24;;;;;;;2.60;1.33;;;;;;;;;;4992494;28;20054;-62
2023/03/11 02:12:52;;;;;;;2.13;1.00;;;;;;;;;;5000854;28;20062;-61
2023/03/11 02:15:19;;;;;;;2.55;1.10;;;;;;;;;;5011391;28;20097;-62
2023/03/11 02:17:46;;;;;;;2.25;1.23;;;;;;;;;;5011844;28;20058;-61
2023/03/11 02:20:21;;;;;;;2.28;1.17;;;;;;;;;;5011851;28;20057;-62
2023/03/11 02:22:49;;;;;;;2.17;1.08;;;;;;;;;;5011729;28;20046;-62
2023/03/11 02:25:25;;;;;;;2.38;1.10;;;;;;;;;;5011525;28;20050;-62
2023/03/11 02:27:55;;;;;;;2.95;1.25;;;;;;;;;;5011615;28;20133;-62
2023/03/11 02:30:23;;;;;;;2.07;1.20;;;;;;;;;;5012146;28;20446;-62
2023/03/11 02:32:51;;;;;;;2.13;1.10;;;;;;;;;;4993316;28;20531;-62
2023/03/11 02:35:18;;;;;;;2.22;1.23;;;;;;;;;;5011580;28;20050;-63
2023/03/11 02:37:46;;;;;;;2.60;1.30;;;;;;;;;;5011644;28;20054;-63
2023/03/11 02:40:36;;;;;;;3.20;1.27;;;;;;;;;;5011759;28;20141;-63
2023/03/11 02:43:08;;;;;;;2.78;1.20;;;;;;;;;;5011859;28;20403;-63
2023/03/11 02:45:35;;;;;;;2.92;1.35;;;;;;;;;;5003382;28;20150;-60
2023/03/11 02:48:03;;;;;;;2.90;1.30;;;;;;;;;;5011489;28;20054;-62
2023/03/11 02:50:33;;;;;;;2.00;1.08;;;;;;;;;;5011557;28;20526;-61
2023/03/11 02:53:00;;;;;;;1.77;1.00;;;;;;;;;;5011616;28;20050;-62
2023/03/11 02:55:27;;;;;;;3.30;1.35;;;;;;;;;;5011117;28;20042;-61
2023/03/11 02:57:53;;;;;;;2.00;1.00;;;;;;;;;;5011275;28;20115;-61
2023/03/11 03:00:22;;;;;;;1.92;1.15;;;;;;;;;;5011822;28;20050;-63
2023/03/11 03:02:51;;;;;;;3.10;1.30;;;;;;;;;;5015077;28;20251;-62
2023/03/11 03:05:19;;;;;;;2.35;1.20;;;;;;;;;;5014477;28;20053;-61
2023/03/11 03:07:46;;;;;;;3.17;1.38;;;;;;;;;;4995983;28;20050;-61
2023/03/11 03:10:14;;;;;;;2.60;1.15;;;;;;;;;;4995283;28;20058;-62
2023/03/11 03:12:41;;;;;;;2.45;1.13;;;;;;;;;;4995227;28;20104;-62
2023/03/11 03:15:09;;;;;;;2.75;1.35;;;;;;;;;;5001054;28;20041;-62
2023/03/11 03:17:37;;;;;;;2.72;1.23;;;;;;;;;;5014542;28;20101;-62
2023/03/11 03:20:10;;;;;;;2.28;1.13;;;;;;;;;;5014658;28;20050;-62
2023/03/11 03:22:37;;;;;;;3.38;1.33;;;;;;;;;;5014711;28;20085;-62
2023/03/11 03:25:04;;;;;;;1.80;1.20;;;;;;;;;;5014414;28;20125;-62
2023/03/11 03:27:33;;;;;;;2.28;1.10;;;;;;;;;;5014037;28;20127;-61
2023/03/11 03:30:00;;;;;;;2.80;1.13;;;;;;;;;;5014403;28;20058;-62
2023/03/11 03:32:26;;;;;;;2.55;1.15;;;;;;;;;;5014418;28;20057;-61
2023/03/11 03:34:57;;;;;;;2.25;1.00;;;;;;;;;;5014535;28;20137;-62
2023/03/11 03:37:24;;;;;;;;;;;;;;;;;;5013892;28;20046;-62
2023/03/11 03:39:51;;;;;;;2.45;1.20;;;;;;;;;;5014404;28;19925;-62
2023/03/11 03:42:18;;;;;;;4.20;1.15;;;;;;;;;;5014087;28;20049;-62
2023/03/11 03:44:45;;;;;;;2.28;1.25;;;;;;;;;;5014113;28;20447;-60
2023/03/11 03:47:12;;;;;;;1.77;1.20;;;;;;;;;;5013709;28;20450;-62
2023/03/11 03:49:39;;;;;;;3.55;1.55;;;;;;;;;;5014177;28;20058;-62
2023/03/11 03:52:07;;;;;;;3.55;1.35;;;;;;;;;;5014071;28;20136;-62
2023/03/11 03:54:34;;;;;;;2.75;1.30;;;;;;;;;;5014372;28;20491;-62
2023/03/11 03:57:01;;;;;;;5.07;1.58;;;;;;;;;;5013587;28;20053;-62
2023/03/11 03:59:28;;;;;;;3.17;1.30;;;;;;;;;;5014157;28;20146;-62
2023/03/11 04:01:55;;;;;;;2.15;1.23;;;;;;;;;;5013647;28;20050;-62
2023/03/11 04:04:21;;;;;;;2.40;1.15;;;;;;;;;;5013721;28;20065;-61
2023/03/11 04:06:48;;;;;;;3.13;1.42;;;;;;;;;;5011212;28;20133;-62
2023/03/11 04:09:17;;;;;;;2.58;1.15;;;;;;;;;;5013675;28;20080;-62
2023/03/11 04:11:44;;;;;;;2.55;1.33;;;;;;;;;;5013636;28;20062;-62
2023/03/11 04:14:10;;;;;;;3.50;1.23;;;;;;;;;;5013728;28;20058;-61
2023/03/11 04:16:37;;;;;;;2.72;1.08;;;;;;;;;;5012950;28;20100;-62
2023/03/11 04:19:04;;;;;;;2.67;1.17;;;;;;;;;;5013544;28;20115;-64
2023/03/11 04:21:31;;;;;;;2.53;1.42;;;;;;;;;;5013544;28;20054;-61
2023/03/11 04:23:58;;;;;;;2.38;1.23;;;;;;;;;;5013615;28;20053;-62
2023/03/11 04:26:27;;;;;;;3.17;1.48;;;;;;;;;;5012907;28;20057;-61
2023/03/11 04:28:54;;;;;;;2.67;1.20;;;;;;;;;;5012969;28;20100;-63
2023/03/11 04:31:20;;;;;;;3.42;1.52;;;;;;;;;;5013433;28;20053;-61
2023/03/11 04:33:47;;;;;;;2.70;1.48;;;;;;;;;;5013156;28;20534;-61
2023/03/11 04:36:14;;;;;;;2.85;1.40;;;;;;;;;;5012958;28;20053;-62
2023/03/11 04:38:41;;;;;;;3.40;1.17;;;;;;;;;;5013086;28;20058;-61
2023/03/11 04:41:08;;;;;;;3.08;1.20;;;;;;;;;;5013088;28;20487;-62
2023/03/11 04:43:36;;;;;;;3.10;1.15;;;;;;;;;;5013221;28;20057;-62
2023/03/11 04:46:03;;;;;;;2.38;1.10;;;;;;;;;;5012610;28;20487;-63
2023/03/11 04:48:30;;;;;;;2.88;1.35;;;;;;;;;;5012545;28;20411;-61
2023/03/11 04:50:56;;;;;;;4.00;1.42;;;;;;;;;;5013381;28;20487;-63
2023/03/11 04:53:23;;;;;;;3.53;1.48;;;;;;;;;;5012920;28;20058;-62
2023/03/11 04:55:51;;;;;;;2.55;1.27;;;;;;;;;;5012711;28;20112;-62
2023/03/11 04:58:18;;;;;;;5.78;1.55;;;;;;;;;;5012842;28;20511;-61
2023/03/11 05:00:46;;;;;;;2.75;1.30;;;;;;;;;;5012807;28;20487;-62
2023/03/11 05:03:13;;;;;;;3.75;1.52;;;;;;;;;;5012692;28;20053;-62
2023/03/11 05:05:40;;;;;;;3.20;1.30;;;;;;;;;;5010936;28;20058;-62
2023/03/11 05:08:07;;;;;;;2.20;1.20;;;;;;;;;;4993002;28;20081;-61
2023/03/11 05:10:33;;;;;;;3.78;1.60;;;;;;;;;;5011345;28;20065;-63
2023/03/11 05:13:00;;;;;;;5.43;1.58;;;;;;;;;;5012696;28;20100;-62
2023/03/11 05:15:30;;;;;;;3.22;1.48;;;;;;;;;;5012119;28;20052;-61
2023/03/11 05:17:58;;;;;;;3.40;1.55;;;;;;;;;;5012694;28;20144;-60
2023/03/11 05:20:25;;;;;;;3.05;1.40;;;;;;;;;;5012159;28;20096;-62
2023/03/11 05:22:51;;;;;;;2.55;1.20;;;;;;;;;;5012662;28;20046;-62
2023/03/11 05:25:18;;;;;;;2.53;1.20;;;;;;;;;;5011907;28;20054;-61
2023/03/11 05:27:45;;;;;;;4.55;1.42;;;;;;;;;;5012496;28;20466;-62
2023/03/11 05:30:14;;;;;;;2.95;1.40;;;;;;;;;;5011982;28;20053;-62
2023/03/11 05:35:12;;;;;;;3.05;1.60;;;;;;;;;;4994078;22;20055;-79
2023/03/11 05:37:39;;;;;;;2.83;1.40;;;;;;;;;;4975869;28;20097;-79
2023/03/11 05:40:07;;;;;;;3.20;1.60;;;;;;;;;;4975325;28;20045;-79
2023/03/11 05:42:34;;;;;;;4.13;1.90;;;;;;;;;;4974926;28;20059;-78
2023/03/11 05:45:01;;;;;;;2.60;1.48;;;;;;;;;;4975284;28;20130;-79
2023/03/11 05:47:28;;;;;;;4.47;1.63;;;;;;;;;;4973821;28;20446;-78
2023/03/11 05:49:54;;;;;;;3.67;1.95;;;;;;;;;;4974692;28;20043;-79
2023/03/11 05:52:22;;;;;;;3.13;1.70;;;;;;;;;;4974854;28;20137;-79
2023/03/11 05:54:50;;;;;;;5.80;1.63;;;;;;;;;;4973651;28;20417;-80
2023/03/11 05:57:16;;;;;;;5.20;1.70;;;;;;;;;;4973630;28;20054;-79
2023/03/11 05:59:43;;;;;;;3.53;1.38;;;;;;;;;;4973673;28;20126;-79
2023/03/11 06:02:10;;;;;;;3.70;1.80;;;;;;;;;;4974053;28;20138;-79
2023/03/11 06:04:36;;;;;;;3.85;1.60;;;;;;;;;;4973817;28;20569;-78
2023/03/11 06:07:04;;;;;;;4.93;1.80;;;;;;;;;;4973998;28;20137;-80
2023/03/11 06:09:34;;;;;;;3.08;1.60;;;;;;;;;;4974510;28;20134;-79
2023/03/11 06:12:01;;;;;;;3.78;1.73;;;;;;;;;;4974426;28;20138;-79
2023/03/11 06:14:30;;;;;;;3.05;1.73;;;;;;;;;;4977384;28;20565;-80
2023/03/11 06:16:57;;;;;;;3.97;1.98;;;;;;;;;;4976537;28;20043;-79
2023/03/11 06:19:23;;;;;;;3.47;1.95;;;;;;;;;;4980070;28;20557;-78
2023/03/11 06:21:50;;;;;;;3.47;1.85;;;;;;;;;;4975402;28;20069;-81
2023/03/11 06:24:17;;;;;;;4.22;1.92;;;;;;;;;;4974452;28;20061;-80
2023/03/11 06:26:45;;;;;;;3.17;1.77;;;;;;;;;;4974283;28;20047;-78
2023/03/11 06:29:14;;;;;;;5.03;2.00;;;;;;;;;;4973248;28;20074;-78
2023/03/11 06:31:41;;;;;;;4.70;2.50;;;;;;;;;;4974669;28;20043;-79
2023/03/11 06:34:09;;;;;;;3.95;2.00;;;;;;;;;;4974158;28;20062;-79
2023/03/11 06:36:35;;;;;;;3.10;1.77;;;;;;;;;;4975856;28;20129;-79
2023/03/11 06:39:03;;;;;;;4.80;2.00;;;;;;;;;;4977830;28;20069;-79
2023/03/11 06:41:29;;;;;;;4.57;2.35;;;;;;;;;;4977591;28;20047;-78
2023/03/11 06:43:59;;;;;;;5.00;2.00;;;;;;;;;;4977369;28;20129;-78
2023/03/11 06:46:26;;;;;;;2.75;1.90;;;;;;;;;;4977679;28;20047;-78
2023/03/11 06:48:53;;;;;;;4.57;2.13;;;;;;;;;;4977623;28;20046;-79
2023/03/11 06:51:21;;;;;;;3.97;1.90;;;;;;;;;;4978883;28;20137;-79
2023/03/11 06:53:50;;;;;;;3.97;1.90;;;;;;;;;;4980861;28;20070;-79
2023/03/11 06:56:17;;;;;;;6.00;2.25;;;;;;;;;;4982400;28;20050;-79
2023/03/11 06:58:44;;;;;;;5.07;2.00;;;;;;;;;;4982490;28;20105;-79
2023/03/11 07:01:14;;;;;;;4.43;2.30;;;;;;;;;;4984434;28;20453;-80
2023/03/11 07:03:41;;;;;;;3.53;2.03;;;;;;;;;;4984093;28;20114;-80
2023/03/11 07:06:12;;;;;;;3.50;1.85;;;;;;;;;;4981817;28;20139;-80
2023/03/11 07:08:38;;;;;;;5.40;2.05;;;;;;;;;;4979372;28;20081;-79
2023/03/11 07:11:07;;;;;;;3.85;2.00;;;;;;;;;;4980122;28;20145;-81
2023/03/11 07:13:34;;;;;;;4.97;2.70;;;;;;;;;;4979387;28;20047;-80
2023/03/11 07:16:03;;;;;;;4.45;2.22;;;;;;;;;;4978889;28;20133;-79
2023/03/11 07:18:32;;;;;;;5.13;2.20;;;;;;;;;;4977719;28;20046;-78
2023/03/11 07:20:58;;;;;;;3.67;1.73;;;;;;;;;;4978866;28;20635;-79
2023/03/11 07:23:25;;;;;;;3.83;2.00;;;;;;;;;;4978080;28;20550;-80
2023/03/11 07:25:54;;;;;;;5.35;2.40;;;;;;;;;;4977376;28;20062;-79
2023/03/11 07:28:21;;;;;;;5.20;2.15;;;;;;;;;;4976939;28;20057;-78
2023/03/11 07:30:48;;;;;;;8.00;2.50;;;;;;;;;;4975707;28;20054;-78
2023/03/11 07:33:15;;;;;;;4.18;2.20;;;;;;;;;;4976551;28;20047;-78
2023/03/11 07:35:43;;;;;;;5.78;2.10;;;;;;;;;;4975125;28;20489;-77
2023/03/11 07:38:10;;;;;;;3.20;1.85;;;;;;;;;;4972733;28;20051;-79
2023/03/11 07:40:37;;;;;;;6.13;2.05;;;;;;;;;;4978216;28;20055;-78
2023/03/11 07:43:04;;;;;;;3.75;2.33;;;;;;;;;;4978926;28;20049;-79
2023/03/11 07:45:30;;;;;;;4.40;2.03;;;;;;;;;;4978856;28;20074;-79
2023/03/11 07:47:57;;;;;;;4.40;2.10;;;;;;;;;;4978371;28;20103;-79
2023/03/11 07:50:24;;;;;;;3.97;2.30;;;;;;;;;;4978146;28;20085;-78
2023/03/11 07:52:52;;;;;;;4.10;1.88;;;;;;;;;;4978141;28;20051;-79
2023/03/11 07:55:19;;;;;;;6.53;1.77;;;;;;;;;;4979367;28;20074;-79
2023/03/11 07:57:47;;;;;;;4.07;1.73;;;;;;;;;;4981286;28;20050;-78
2023/03/11 08:00:15;;;;;;;3.60;1.50;;;;;;;;;;4978594;28;20050;-78
2023/03/11 08:02:42;;;;;;;3.60;1.92;;;;;;;;;;4984937;28;20074;-77
2023/03/11 08:05:10;;;;;;;4.32;2.03;;;;;;;;;;4984794;28;20043;-76
2023/03/11 08:07:37;;;;;;;3.33;2.05;;;;;;;;;;4979027;28;20131;-79
2023/03/11 08:10:06;;;;;;;6.03;2.00;;;;;;;;;;4978527;28;20125;-79
2023/03/11 08:12:32;;;;;;;4.60;2.05;;;;;;;;;;4971623;28;20550;-78
2023/03/11 08:14:59;;;;;;;7.13;2.22;;;;;;;;;;4961255;28;20054;-80
2023/03/11 08:17:26;;;;;;;4.75;1.95;;;;;;;;;;4961098;28;20082;-79
2023/03/11 08:19:52;;;;;;;3.50;2.20;;;;;;;;;;4961611;28;20089;-79
2023/03/11 08:22:19;;;;;;;5.13;2.15;;;;;;;;;;4969427;28;20125;-78
2023/03/11 08:24:46;;;;;;;8.52;2.38;;;;;;;;;;4965189;28;20062;-78
2023/03/11 08:27:14;;;;;;;3.00;1.70;;;;;;;;;;4974763;28;20578;-79
2023/03/11 08:29:40;;;;;;;5.18;2.08;;;;;;;;;;4981166;28;20751;-80
2023/03/11 08:32:07;;;;;;;4.00;2.38;;;;;;;;;;4982884;28;20070;-80
2023/03/11 08:34:34;;;;;;;4.57;2.25;;;;;;;;;;4983127;28;20399;-80
2023/03/11 08:37:01;;;;;;;4.22;1.98;;;;;;;;;;4981157;28;20078;-79
2023/03/11 08:39:27;;;;;;;4.75;1.80;;;;;;;;;;4980464;28;20442;-80
2023/03/11 08:41:54;;;;;;;5.60;2.15;;;;;;;;;;4978804;28;20074;-79
2023/03/11 08:44:22;;;;;;;5.95;2.80;;;;;;;;;;4979789;28;20051;-79
2023/03/11 08:46:48;;;;;;;5.45;2.35;;;;;;;;;;4978392;28;20050;-79
2023/03/11 08:49:15;;;;;;;4.22;2.13;;;;;;;;;;4979251;28;20137;-80
2023/03/11 08:51:42;;;;;;;5.13;2.40;;;;;;;;;;4977674;28;20085;-79
2023/03/11 08:54:08;;;;;;;4.78;2.38;;;;;;;;;;4979328;28;20736;-80
2023/03/11 08:56:35;;;;;;;4.20;2.10;;;;;;;;;;4978820;28;20133;-79
2023/03/11 08:59:02;;;;;;;4.88;2.13;;;;;;;;;;4978819;28;20146;-79
2023/03/11 09:01:30;;;;;;;4.28;2.20;;;;;;;;;;4977797;28;20046;-80
2023/03/11 09:03:57;;;;;;;8.40;3.00;;;;;;;;;;4968274;28;20150;-80
2023/03/11 09:06:24;;;;;;;5.03;2.33;;;;;;;;;;4961348;28;20071;-79
2023/03/11 09:08:51;;;;;;;4.80;2.30;;;;;;;;;;4967328;28;20047;-79
2023/03/11 09:11:20;;;;;;;6.65;2.35;;;;;;;;;;4983556;28;20069;-77
2023/03/11 09:13:47;;;;;;;5.40;2.72;;;;;;;;;;4987110;28;20081;-79
2023/03/11 09:16:15;;;;;;;3.65;2.17;;;;;;;;;;4961741;28;20183;-80
2023/03/11 09:18:43;;;;;;;5.40;2.17;;;;;;;;;;4976191;28;20051;-81
2023/03/11 09:21:10;;;;;;;4.18;2.17;;;;;;;;;;4979727;28;20050;-82
2023/03/11 09:23:37;;;;;;;3.75;1.90;;;;;;;;;;4959673;28;20047;-75
2023/03/11 09:26:04;;;;;;;2.80;1.90;;;;;;;;;;4959228;28;20051;-78
2023/03/11 09:28:30;;;;;;;4.53;2.17;;;;;;;;;;4979109;28;20514;-80
2023/03/11 09:30:57;;;;;;;3.80;1.90;;;;;;;;;;4979114;28;20141;-80
2023/03/11 09:33:24;;;;;;;4.53;2.10;;;;;;;;;;4979003;28;20089;-78
2023/03/11 09:35:52;;;;;;;3.22;2.15;;;;;;;;;;4978444;28;20462;-77
2023/03/11 09:38:19;;;;;;;3.90;1.92;;;;;;;;;;4979383;28;20055;-79
2023/03/11 09:40:54;;;;;;;3.33;1.75;;;;;;;;;;4979163;28;20042;-77
2023/03/11 09:43:35;;;;;;;3.17;1.50;;;;;;;;;;4979023;28;20047;-78
2023/03/11 09:46:12;;;;;;;3.40;1.52;;;;;;;;;;4977393;28;20058;-78
2023/03/11 09:48:44;;;;;;;3.70;1.65;;;;;;;;;;4982016;28;20131;-81
2023/03/11 09:51:22;;;;;;;2.83;1.67;;;;;;;;;;4981674;28;20110;-77
2023/03/11 09:53:55;;;;;;;4.78;1.90;;;;;;;;;;4983438;28;20047;-80
2023/03/11 09:56:23;;;;;;;3.78;2.00;;;;;;;;;;4984622;28;20082;-80
2023/03/11 09:58:52;;;;;;;5.30;1.60;;;;;;;;;;4983988;28;20078;-77
2023/03/11 10:01:23;;;;;;;3.30;1.48;;;;;;;;;;4989307;28;20043;-78
2023/03/11 10:03:53;;;;;;;4.18;2.10;;;;;;;;;;4990219;28;20074;-80
2023/03/11 10:06:23;;;;;;;3.08;1.30;;;;;;;;;;4992245;28;20047;-79
2023/03/11 10:08:59;;;;;;;3.67;2.00;;;;;;;;;;4988301;28;20494;-80
2023/03/11 10:11:44;;;;;;;3.67;1.50;;;;;;;;;;4984599;28;20085;-80
2023/03/11 10:14:21;;;;;;;2.67;1.38;;;;;;;;;;4982716;28;20394;-78
2023/03/11 10:17:01;;;;;;;3.88;1.52;;;;;;;;;;4983498;28;20111;-80
2023/03/11 10:19:38;;;;;;;3.20;1.55;;;;;;;;;;4971144;28;20075;-80
2023/03/11 10:22:15;;;;;;;3.85;1.50;;;;;;;;;;4978474;28;20102;-77
2023/03/11 10:24:57;;;;;;;4.45;1.73;;;;;;;;;;4985569;28;20509;-82
2023/03/11 10:27:29;;;;;;;3.33;1.80;;;;;;;;;;4985539;28;20053;-79
2023/03/11 10:30:03;;;;;;;5.70;1.60;;;;;;;;;;4986949;28;20058;-81
2023/03/11 10:32:38;;;;;;;2.83;1.50;;;;;;;;;;4975533;28;20082;-80
2023/03/11 10:35:15;;;;;;;5.13;1.88;;;;;;;;;;4969770;28;20047;-83
2023/03/11 10:37:49;;;;;;;4.40;1.77;;;;;;;;;;4972474;28;20051;-79
2023/03/11 10:40:24;;;;;;;3.72;1.83;;;;;;;;;;4978621;28;20562;-80
2023/03/11 10:42:51;;;;;;;4.53;1.90;;;;;;;;;;4979141;28;20129;-80
2023/03/11 10:45:19;;;;;;;4.63;1.80;;;;;;;;;;4978443;28;20117;-79
2023/03/11 10:47:46;;;;;;;6.35;1.83;;;;;;;;;;4978223;28;20057;-79
2023/03/11 10:50:16;;;;;;;2.88;1.60;;;;;;;;;;4977645;28;20039;-81
2023/03/11 10:53:05;;;;;;;3.72;1.85;;;;;;;;;;4977906;28;20130;-82
2023/03/11 10:55:31;;;;;;;5.03;2.30;;;;;;;;;;4980693;28;20046;-80
2023/03/11 10:58:05;;;;;;;3.08;1.90;;;;;;;;;;4958633;28;20055;-81
2023/03/11 11:00:32;;;;;;;4.70;2.15;;;;;;;;;;4959435;28;20051;-80
2023/03/11 11:03:00;;;;;;;5.55;2.50;;;;;;;;;;4959441;28;20133;-80
2023/03/11 11:05:31;;;;;;;3.30;2.00;;;;;;;;;;4963043;28;20063;-78
2023/03/11 11:08:08;;;;;;;4.28;2.25;;;;;;;;;;4958997;28;20422;-81
2023/03/11 11:10:36;;;;;;;3.50;1.88;;;;;;;;;;4959607;28;20082;-80
2023/03/11 11:13:16;;;;;;;3.63;1.95;;;;;;;;;;4960340;28;20047;-81
2023/03/11 11:15:56;;;;;;;6.85;1.90;;;;;;;;;;4968127;28;20047;-79
2023/03/11 11:18:25;;;;;;;4.38;1.33;;;;;;;;;;4965758;28;20055;-81
2023/03/11 11:21:00;;;;;;;2.88;1.42;;;;;;;;;;4977792;28;20074;-80
2023/03/11 11:23:33;;;;;;;2.95;1.50;;;;;;;;;;4978686;28;20050;-80
2023/03/11 11:26:03;;;;;;;8.02;2.33;;;;;;;;;;4978159;28;20082;-80
2023/03/11 11:28:30;;;;;;;5.13;1.95;;;;;;;;;;4980188;28;20062;-81
2023/03/11 11:30:59;;;;;;;4.30;1.70;;;;;;;;;;4978787;28;20054;-80
2023/03/11 11:33:29;;;;;;;4.20;1.88;;;;;;;;;;4977677;28;20077;-80
2023/03/11 11:35:57;;;;;;;5.28;1.90;;;;;;;;;;4977819;28;20105;-79
2023/03/11 11:38:26;;;;;;;4.18;1.70;;;;;;;;;;4977494;28;20154;-80
2023/03/11 11:41:00;;;;;;;5.28;2.13;;;;;;;;;;4978104;28;20113;-81
2023/03/11 11:43:41;;;;;;;4.72;2.15;;;;;;;;;;4977662;28;20133;-79
2023/03/11 11:46:18;;;;;;;5.38;2.10;;;;;;;;;;4977941;28;20101;-80
2023/03/11 11:48:50;;;;;;;3.47;2.03;;;;;;;;;;4978098;28;20053;-80
2023/03/11 11:51:23;;;;;;;3.17;1.95;;;;;;;;;;4977455;28;20053;-79
2023/03/11 11:53:56;;;;;;;4.35;1.73;;;;;;;;;;4962736;28;20469;-80
2023/03/11 11:56:25;;;;;;;4.57;1.90;;;;;;;;;;4977167;28;20057;-81
2023/03/11 11:58:53;;;;;;;2.90;1.60;;;;;;;;;;4977013;28;20141;-82
2023/03/11 12:01:30;;;;;;;4.15;1.45;;;;;;;;;;4973611;28;20612;-81
2023/03/11 12:04:12;;;;;;;2.97;1.58;;;;;;;;;;4976732;28;20078;-80
2023/03/11 12:06:47;;;;;;;3.60;1.60;;;;;;;;;;4967975;28;20071;-80
2023/03/11 12:09:25;;;;;;;4.95;2.35;;;;;;;;;;4957809;28;20134;-80
2023/03/11 12:12:01;;;;;;;3.88;2.15;;;;;;;;;;4962777;28;20038;-81
2023/03/11 12:14:34;;;;;;;5.30;2.33;;;;;;;;;;4977034;28;20097;-78
2023/03/11 12:17:02;;;;;;;3.90;2.92;;;;;;;;;;4979031;28;20125;-79
2023/03/11 12:19:37;;;;;;;3.92;2.03;;;;;;;;;;4998543;28;20034;-83
2023/03/11 12:22:26;;;;;;;4.38;1.90;;;;;;;;;;4999236;28;20054;-82
2023/03/11 12:25:20;;;;;;;4.05;1.98;;;;;;;;;;4998574;28;20114;-81
2023/03/11 12:27:54;;;;;;;5.18;2.22;;;;;;;;;;4984909;28;20054;-79
2023/03/11 12:30:26;;;;;;;4.47;2.17;;;;;;;;;;4964875;28;20047;-80
2023/03/11 12:32:57;;;;;;;3.85;2.47;;;;;;;;;;4975015;28;20050;-81
2023/03/11 12:35:26;;;;;;;;;;;;;;;;;;4977432;28;20078;-80
2023/03/11 12:37:59;;;;;;;4.22;2.15;;;;;;;;;;4976625;28;19918;-80
2023/03/11 12:40:56;;;;;;;4.63;2.33;;;;;;;;;;4973090;28;20047;-79
2023/03/11 12:43:43;;;;;;;3.40;1.70;;;;;;;;;;4972652;28;20133;-79
2023/03/11 12:46:13;;;;;;;3.22;1.92;;;;;;;;;;4975736;28;20049;-80
2023/03/11 12:48:43;;;;;;;4.38;1.90;;;;;;;;;;4977475;28;20046;-80
2023/03/11 12:51:40;;;;;;;4.47;2.53;;;;;;;;;;4976920;28;20047;-77
2023/03/11 12:54:30;;;;;;;4.28;1.70;;;;;;;;;;4976837;28;20047;-79
2023/03/11 12:56:59;;;;;;;5.10;1.93;;;;;;;;;;4979906;28;20517;-80
2023/03/11 12:59:57;;;;;;;3.45;2.05;;;;;;;;;;4978187;28;20146;-79
2023/03/11 13:02:42;;;;;;;4.38;2.25;;;;;;;;;;4946828;28;20038;-80
2023/03/11 13:05:17;;;;;;;4.18;2.20;;;;;;;;;;4976318;28;20497;-79
2023/03/11 13:07:49;;;;;;;7.82;3.20;;;;;;;;;;4961691;28;20082;-79
2023/03/11 13:10:35;;;;;;;7.40;3.47;;;;;;;;;;4971860;28;20074;-81
2023/03/11 13:13:21;;;;;;;6.82;3.30;;;;;;;;;;4970754;28;20046;-80
2023/03/11 13:15:49;;;;;;;3.95;2.10;;;;;;;;;;4977450;28;20070;-79
2023/03/11 13:18:23;;;;;;;3.78;2.13;;;;;;;;;;4977411;28;20565;-79
2023/03/11 13:20:55;;;;;;;6.03;2.53;;;;;;;;;;4977673;28;20051;-79
2023/03/11 13:23:32;;;;;;;3.30;2.00;;;;;;;;;;4979649;28;20047;-78
2023/03/11 13:26:25;;;;;;;3.70;1.77;;;;;;;;;;4977823;28;20070;-79
2023/03/11 13:29:28;;;;;;;5.80;1.95;;;;;;;;;;4977529;28;20585;-79
2023/03/11 13:32:35;;;;;;;5.15;2.20;;;;;;;;;;4977241;28;20121;-80
2023/03/11 13:35:13;;;;;;;3.92;1.92;;;;;;;;;;4917329;29;20123;-79
2023/03/11 13:37:48;;;;;;;4.53;2.08;;;;;;;;;;4968319;28;20051;-79
2023/03/11 13:40:28;;;;;;;5.60;2.10;;;;;;;;;;4977826;28;20057;-80
2023/03/11 13:42:58;;;;;;;3.25;1.88;;;;;;;;;;4978583;28;20110;-79
2023/03/11 13:45:30;;;;;;;3.30;1.85;;;;;;;;;;4977896;28;20050;-80
2023/03/11 13:48:01;;;;;;;3.08;1.98;;;;;;;;;;4978562;28;20113;-80
2023/03/11 13:50:31;;;;;;;4.20;1.88;;;;;;;;;;4978776;28;20126;-80
2023/03/11 13:53:01;;;;;;;4.05;2.13;;;;;;;;;;4978447;28;20050;-79
2023/03/11 13:55:33;;;;;;;3.63;2.17;;;;;;;;;;4978147;28;20069;-80
2023/03/11 13:58:00;;;;;;;3.53;2.10;;;;;;;;;;4978579;28;20130;-80
2023/03/11 14:00:28;;;;;;;5.63;2.50;;;;;;;;;;4978499;28;20161;-79
2023/03/11 14:02:56;;;;;;;4.82;2.08;;;;;;;;;;4978707;28;20621;-79
2023/03/11 14:05:27;;;;;;;4.45;2.42;;;;;;;;;;4979623;28;20071;-79
2023/03/11 14:07:54;;;;;;;5.22;3.08;;;;;;;;;;4960030;28;20102;-80
2023/03/11 14:10:29;;;;;;;3.55;1.98;;;;;;;;;;4959585;29;20135;-80
2023/03/11 14:13:16;;;;;;;5.43;2.30;;;;;;;;;;4966280;28;20061;-79
2023/03/11 14:15:48;;;;;;;4.80;2.40;;;;;;;;;;4976064;29;20035;-80
2023/03/11 14:18:33;;;;;;;4.40;2.10;;;;;;;;;;4975111;28;20048;-79
2023/03/11 14:21:03;;;;;;;3.15;1.85;;;;;;;;;;4957476;29;20091;-80
2023/03/11 14:23:34;;;;;;;3.40;2.00;;;;;;;;;;4959206;28;20070;-81
2023/03/11 14:26:02;;;;;;;;;;;;;;;;;;4958952;29;20051;-81
2023/03/11 14:28:32;;;;;;;4.65;1.95;;;;;;;;;;4960441;28;19922;-80
2023/03/11 14:31:01;;;;;;;4.93;2.30;;;;;;;;;;4958566;28;20389;-81
2023/03/11 14:33:29;;;;;;;4.68;2.28;;;;;;;;;;4962454;28;20078;-80
2023/03/11 14:35:57;;;;;;;4.10;1.88;;;;;;;;;;4962288;29;20164;-81
2023/03/11 14:38:27;;;;;;;4.18;2.33;;;;;;;;;;4963345;29;20503;-81
2023/03/11 14:40:56;;;;;;;5.38;2.17;;;;;;;;;;4961702;29;20078;-80
2023/03/11 14:43:24;;;;;;;4.88;2.17;;;;;;;;;;4960266;28;20067;-81
2023/03/11 14:45:52;;;;;;;4.15;2.47;;;;;;;;;;4959209;29;20107;-81
2023/03/11 14:48:26;;;;;;;3.58;2.17;;;;;;;;;;4963862;29;20051;-80
2023/03/11 14:50:53;;;;;;;4.18;2.35;;;;;;;;;;4965603;29;20046;-81
2023/03/11 14:53:26;;;;;;;3.70;2.03;;;;;;;;;;4972329;28;20099;-79
2023/03/11 14:55:57;;;;;;;4.30;2.70;;;;;;;;;;4976532;28;20036;-78
2023/03/11 14:58:29;;;;;;;5.30;2.60;;;;;;;;;;4980194;28;20070;-77
2023/03/11 15:01:02;;;;;;;4.65;2.40;;;;;;;;;;4980235;28;20042;-77
2023/03/11 15:03:31;;;;;;;4.32;2.15;;;;;;;;;;4967011;28;20082;-80